Terminal Aerodrome Forecast
Issued by NWS

Home | Current Version | Previous Version | Text Only | Print | Product List | Glossary On
Versions: 1 2 3 4 5 6 7 8 9 10 11 12 13 14 15 16 17 18 19 20 21
000
FTUS46 KPDT 211100
TAFDLS
TAF
KDLS 211120Z 2112/2212 11003KT 5SM BR SCT015 OVC070
     FM211900 08004KT 6SM BR VCSH OVC050
     FM212100 09005KT 5SM -RA BR BKN020 OVC040
     FM220200 VRB02KT 3SM -RA BR OVC015=

USA.gov is the U.S. government's official web portal to all federal, state and local government web resources and services.